MUC | München Airways

 METAR UND TAF INFORMATION

METAR FOR LIRQ
ADDS - METARS form results

(1611 UTC 24 March 2019)
Data provider http://aviationweather.gov/metar/data/
 
METAR text: LIRQ 241550Z 27009KT 240V300 CAVOK 23/04 Q1018
Conditions at: LIRQ (FIRENZE/PERETOLA, IT) observed 1550 UTC 24 March 2019
Temperature: 23.0°C (73°F)
Dewpoint: 4.0°C (39°F) [RH = 29%]
Pressure (altimeter): 30.06 inches Hg (1018.0 mb)
Winds: from the W (270 degrees) at 10 MPH (9 knots; 4.6 m/s)
Visibility: 6 or more miles (10+ km)
Ceiling: ceiling and visibility are OK
Clouds: unknown
Weather: no significant weather observed at this time

METAR text: LIRQ 241520Z 25010KT 220V290 CAVOK 24/04 Q1018
Conditions at: LIRQ (FIRENZE/PERETOLA, IT) observed 1520 UTC 24 March 2019
Temperature: 24.0°C (75°F)
Dewpoint: 4.0°C (39°F) [RH = 27%]
Pressure (altimeter): 30.06 inches Hg (1018.0 mb)
Winds: from the WSW (250 degrees) at 12 MPH (10 knots; 5.1 m/s)
Visibility: 6 or more miles (10+ km)
Ceiling: ceiling and visibility are OK
Clouds: unknown
Weather: no significant weather observed at this time

Forecast for: LIRQ (FIRENZE/PERETOLA, IT)
Text: TAF LIRQ 241100Z 2412/2512 VRB05KT CAVOK
Forecast period: 1200 UTC 24 March 2019 to 0000 UTC 25 March 2019
Forecast type: FROM: standard forecast or significant change
Winds: variable direction winds at 6 MPH (5 knots; 2.6 m/s)
Visibility: 6 or more miles 10+ km)
Ceiling: unknown
Clouds: missing
Weather: NSW  (no significant weather)
Text: BECMG 2500/2502 2000 BR BKN008
Forecast period: 0000 to 0700 UTC 25 March 2019
Forecast type: BECOMING: Conditions expected to become as follows by 0200 UTC 25 March 2019
Winds: variable direction winds at 6 MPH (5 knots; 2.6 m/s)
Visibility: 1.24 miles (2.00 km)
Ceiling: 800 feet AGL
Clouds: broken clouds at 800 feet AGL
Weather: BR  (mist)
Text: BECMG 2507/2509 7000 NSC
Forecast period: 0700 to 1200 UTC 25 March 2019
Forecast type: BECOMING: Conditions expected to become as follows by 0900 UTC 25 March 2019
Winds: variable direction winds at 6 MPH (5 knots; 2.6 m/s)
Visibility: 4 miles (7 km)
Ceiling: unknown
Clouds: missing
Weather: BR  (mist)

 FLUGHAFENKARTE

 RUNWAY INFORMATION
Runway 05 Runway length 5425 ft Runway width 98 ft
Runway elevation 123 ft Runway displaced threshold 492 ft Runway heading 48
Runway 23 Runway length 5425 ft Runway width 98 ft
Runway elevation 132 ft Runway displaced threshold 2287 ft Runway heading 228

 AIRPORT FREQUENCIES
Type APP Name APP Frequency 126.075 MHZ
Type ATIS Name ATIS Frequency 129.35 MHZ
Type TWR Name FIRENZE TW Frequency 118.3 MHZ

 AIRPORT NEAR NAVIGATION AIDS
Type VOR-DME Name Peretola Frequency 112500 KHZ